Terminal Aerodrome Forecast
Issued by NWS Wakefield, VA

Home | Current Version | Previous Version | Text Only | Print | Product List | Glossary On
Versions: 1 2 3 4 5 6 7 8 9 10 11 12 13 14 15
000
FTUS41 KAKQ 190100 AAA
TAFSBY
TAF AMD
KSBY 190121Z 1901/1924 VRB03KT P6SM OVC080
      TEMPO 1902/1904 -SHRA SCT020 OVC040
     FM190400 00000KT P6SM BKN100
     FM191400 08008KT P6SM SCT050 BKN100=

USA.gov is the U.S. government's official web portal to all federal, state and local government web resources and services.